sensor_id;sensor_type;location;lat;lon;timestamp;temperature;humidity
54431;DHT22;40342;52.998;5.862;2023-01-06T00:00:18;10.10;99.90
54431;DHT22;40342;52.998;5.862;2023-01-06T00:02:44;10.10;99.90
54431;DHT22;40342;52.998;5.862;2023-01-06T00:05:12;10.10;99.90
54431;DHT22;40342;52.998;5.862;2023-01-06T00:07:38;10.10;99.90
54431;DHT22;40342;52.998;5.862;2023-01-06T00:10:05;10.10;99.90
54431;DHT22;40342;52.998;5.862;2023-01-06T00:12:30;10.10;99.90
54431;DHT22;40342;52.998;5.862;2023-01-06T00:14:56;10.20;99.90
54431;DHT22;40342;52.998;5.862;2023-01-06T00:17:23;10.20;99.90
54431;DHT22;40342;52.998;5.862;2023-01-06T00:19:48;10.10;99.90
54431;DHT22;40342;52.998;5.862;2023-01-06T00:22:14;10.20;99.90
54431;DHT22;40342;52.998;5.862;2023-01-06T00:24:39;10.10;99.90
54431;DHT22;40342;52.998;5.862;2023-01-06T00:27:05;10.10;99.90
54431;DHT22;40342;52.998;5.862;2023-01-06T00:29:30;10.10;99.90
54431;DHT22;40342;52.998;5.862;2023-01-06T00:31:58;10.10;99.90
54431;DHT22;40342;52.998;5.862;2023-01-06T00:34:25;10.10;99.90
54431;DHT22;40342;52.998;5.862;2023-01-06T00:36:50;10.00;99.90
54431;DHT22;40342;52.998;5.862;2023-01-06T00:39:16;9.90;99.90
54431;DHT22;40342;52.998;5.862;2023-01-06T00:41:41;9.90;99.90
54431;DHT22;40342;52.998;5.862;2023-01-06T00:44:25;9.90;99.90
54431;DHT22;40342;52.998;5.862;2023-01-06T00:46:51;9.90;99.90
54431;DHT22;40342;52.998;5.862;2023-01-06T00:49:17;9.90;99.90
54431;DHT22;40342;52.998;5.862;2023-01-06T00:51:42;9.80;99.90
54431;DHT22;40342;52.998;5.862;2023-01-06T00:54:11;9.80;99.90
54431;DHT22;40342;52.998;5.862;2023-01-06T00:56:39;9.70;99.90
54431;DHT22;40342;52.998;5.862;2023-01-06T00:59:05;9.70;99.90
54431;DHT22;40342;52.998;5.862;2023-01-06T01:01:32;9.70;99.90
54431;DHT22;40342;52.998;5.862;2023-01-06T01:03:58;9.70;99.90
54431;DHT22;40342;52.998;5.862;2023-01-06T01:06:24;9.70;99.90
54431;DHT22;40342;52.998;5.862;2023-01-06T01:08:54;9.70;99.90
54431;DHT22;40342;52.998;5.862;2023-01-06T01:11:20;9.60;99.90
54431;DHT22;40342;52.998;5.862;2023-01-06T01:14:04;9.60;99.90
54431;DHT22;40342;52.998;5.862;2023-01-06T01:16:30;9.70;99.90
54431;DHT22;40342;52.998;5.862;2023-01-06T01:18:56;9.70;99.90
54431;DHT22;40342;52.998;5.862;2023-01-06T01:21:22;9.70;99.90
54431;DHT22;40342;52.998;5.862;2023-01-06T01:23:47;9.70;99.90
54431;DHT22;40342;52.998;5.862;2023-01-06T01:26:13;9.70;99.90
54431;DHT22;40342;52.998;5.862;2023-01-06T01:28:39;9.80;99.90
54431;DHT22;40342;52.998;5.862;2023-01-06T01:31:04;9.70;99.90
54431;DHT22;40342;52.998;5.862;2023-01-06T01:33:30;9.80;99.90
54431;DHT22;40342;52.998;5.862;2023-01-06T01:35:56;9.70;99.90
54431;DHT22;40342;52.998;5.862;2023-01-06T01:38:21;9.70;99.90
54431;DHT22;40342;52.998;5.862;2023-01-06T01:40:49;9.70;99.90
54431;DHT22;40342;52.998;5.862;2023-01-06T01:43:15;9.70;99.90
54431;DHT22;40342;52.998;5.862;2023-01-06T01:45:42;9.70;99.90
54431;DHT22;40342;52.998;5.862;2023-01-06T01:48:32;9.70;99.90
54431;DHT22;40342;52.998;5.862;2023-01-06T01:51:01;9.80;99.90
54431;DHT22;40342;52.998;5.862;2023-01-06T01:53:35;9.80;99.90
54431;DHT22;40342;52.998;5.862;2023-01-06T01:56:06;9.80;99.90
54431;DHT22;40342;52.998;5.862;2023-01-06T01:58:40;9.80;99.90
54431;DHT22;40342;52.998;5.862;2023-01-06T02:01:08;9.70;99.90
54431;DHT22;40342;52.998;5.862;2023-01-06T02:03:36;9.70;99.90
54431;DHT22;40342;52.998;5.862;2023-01-06T02:06:04;9.70;99.90
54431;DHT22;40342;52.998;5.862;2023-01-06T02:08:41;9.70;99.90
54431;DHT22;40342;52.998;5.862;2023-01-06T02:11:09;9.60;99.90
54431;DHT22;40342;52.998;5.862;2023-01-06T02:13:36;9.70;99.90
54431;DHT22;40342;52.998;5.862;2023-01-06T02:30:15;9.70;99.90
54431;DHT22;40342;52.998;5.862;2023-01-06T02:35:41;9.70;99.90
54431;DHT22;40342;52.998;5.862;2023-01-06T02:41:16;9.70;99.90
54431;DHT22;40342;52.998;5.862;2023-01-06T02:54:55;9.80;99.90
54431;DHT22;40342;52.998;5.862;2023-01-06T02:57:38;9.80;99.90
54431;DHT22;40342;52.998;5.862;2023-01-06T03:00:29;9.80;99.90
54431;DHT22;40342;52.998;5.862;2023-01-06T03:02:59;9.80;99.90
54431;DHT22;40342;52.998;5.862;2023-01-06T03:05:27;9.80;99.90
54431;DHT22;40342;52.998;5.862;2023-01-06T03:07:54;9.80;99.90
54431;DHT22;40342;52.998;5.862;2023-01-06T03:10:22;9.80;99.90
54431;DHT22;40342;52.998;5.862;2023-01-06T03:13:24;9.80;99.90
54431;DHT22;40342;52.998;5.862;2023-01-06T03:15:51;9.80;99.90
54431;DHT22;40342;52.998;5.862;2023-01-06T03:18:16;9.90;99.90
54431;DHT22;40342;52.998;5.862;2023-01-06T03:20:42;9.80;99.90
54431;DHT22;40342;52.998;5.862;2023-01-06T03:23:08;9.80;99.90
54431;DHT22;40342;52.998;5.862;2023-01-06T03:25:33;9.90;99.90
54431;DHT22;40342;52.998;5.862;2023-01-06T03:28:01;9.90;99.90
54431;DHT22;40342;52.998;5.862;2023-01-06T03:30:35;9.90;99.90
54431;DHT22;40342;52.998;5.862;2023-01-06T03:33:19;9.90;99.90
54431;DHT22;40342;52.998;5.862;2023-01-06T03:38:41;9.80;99.90
54431;DHT22;40342;52.998;5.862;2023-01-06T03:44:17;9.90;99.90
54431;DHT22;40342;52.998;5.862;2023-01-06T03:46:53;9.90;99.90
54431;DHT22;40342;52.998;5.862;2023-01-06T03:49:30;9.90;99.90
54431;DHT22;40342;52.998;5.862;2023-01-06T03:52:04;9.90;99.90
54431;DHT22;40342;52.998;5.862;2023-01-06T03:54:39;9.90;99.90
54431;DHT22;40342;52.998;5.862;2023-01-06T03:57:21;9.90;99.90
54431;DHT22;40342;52.998;5.862;2023-01-06T03:59:54;9.90;99.90
54431;DHT22;40342;52.998;5.862;2023-01-06T04:02:21;9.90;99.90
54431;DHT22;40342;52.998;5.862;2023-01-06T04:05:10;9.90;99.90
54431;DHT22;40342;52.998;5.862;2023-01-06T04:07:40;9.90;99.90
54431;DHT22;40342;52.998;5.862;2023-01-06T04:10:07;9.80;99.90
54431;DHT22;40342;52.998;5.862;2023-01-06T04:12:33;9.90;99.90
54431;DHT22;40342;52.998;5.862;2023-01-06T04:17:30;9.90;99.90
54431;DHT22;40342;52.998;5.862;2023-01-06T04:19:55;9.90;99.90
54431;DHT22;40342;52.998;5.862;2023-01-06T04:22:21;9.90;99.90
54431;DHT22;40342;52.998;5.862;2023-01-06T04:24:46;10.00;99.90
54431;DHT22;40342;52.998;5.862;2023-01-06T04:27:12;9.90;99.90
54431;DHT22;40342;52.998;5.862;2023-01-06T04:29:38;9.90;99.90
54431;DHT22;40342;52.998;5.862;2023-01-06T04:32:03;9.90;99.90
54431;DHT22;40342;52.998;5.862;2023-01-06T04:34:29;10.00;99.90
54431;DHT22;40342;52.998;5.862;2023-01-06T04:36:55;10.00;99.90
54431;DHT22;40342;52.998;5.862;2023-01-06T04:39:20;10.00;99.90
54431;DHT22;40342;52.998;5.862;2023-01-06T04:41:46;10.00;99.90
54431;DHT22;40342;52.998;5.862;2023-01-06T04:44:11;10.00;99.90
54431;DHT22;40342;52.998;5.862;2023-01-06T04:46:37;10.00;99.90
54431;DHT22;40342;52.998;5.862;2023-01-06T04:49:02;10.00;99.90
54431;DHT22;40342;52.998;5.862;2023-01-06T04:51:28;10.00;99.90
54431;DHT22;40342;52.998;5.862;2023-01-06T04:53:54;10.00;99.90
54431;DHT22;40342;52.998;5.862;2023-01-06T04:56:20;10.00;99.90
54431;DHT22;40342;52.998;5.862;2023-01-06T04:58:46;10.00;99.90
54431;DHT22;40342;52.998;5.862;2023-01-06T05:01:12;10.00;99.90
54431;DHT22;40342;52.998;5.862;2023-01-06T05:03:39;10.00;99.90
54431;DHT22;40342;52.998;5.862;2023-01-06T05:06:09;10.00;99.90
54431;DHT22;40342;52.998;5.862;2023-01-06T05:08:40;10.00;99.90
54431;DHT22;40342;52.998;5.862;2023-01-06T05:11:11;10.00;99.90
54431;DHT22;40342;52.998;5.862;2023-01-06T05:13:37;10.00;99.90
54431;DHT22;40342;52.998;5.862;2023-01-06T05:16:11;10.00;99.90
54431;DHT22;40342;52.998;5.862;2023-01-06T05:18:38;10.00;99.90
54431;DHT22;40342;52.998;5.862;2023-01-06T05:21:04;10.00;99.90
54431;DHT22;40342;52.998;5.862;2023-01-06T05:23:30;10.00;99.90
54431;DHT22;40342;52.998;5.862;2023-01-06T05:25:55;10.00;99.90
54431;DHT22;40342;52.998;5.862;2023-01-06T05:28:21;10.00;99.90
54431;DHT22;40342;52.998;5.862;2023-01-06T05:30:47;10.00;99.90
54431;DHT22;40342;52.998;5.862;2023-01-06T05:33:13;9.90;99.90
54431;DHT22;40342;52.998;5.862;2023-01-06T05:35:39;9.90;99.90
54431;DHT22;40342;52.998;5.862;2023-01-06T05:38:04;9.90;99.90
54431;DHT22;40342;52.998;5.862;2023-01-06T05:40:30;9.90;99.90
54431;DHT22;40342;52.998;5.862;2023-01-06T05:42:56;9.80;99.90
54431;DHT22;40342;52.998;5.862;2023-01-06T05:45:23;9.80;99.90
54431;DHT22;40342;52.998;5.862;2023-01-06T05:47:49;9.80;99.90
54431;DHT22;40342;52.998;5.862;2023-01-06T05:50:15;9.80;99.90
54431;DHT22;40342;52.998;5.862;2023-01-06T05:52:41;9.80;99.90
54431;DHT22;40342;52.998;5.862;2023-01-06T05:55:07;9.70;99.90
54431;DHT22;40342;52.998;5.862;2023-01-06T05:57:33;9.70;99.90
54431;DHT22;40342;52.998;5.862;2023-01-06T05:59:59;9.70;99.90
54431;DHT22;40342;52.998;5.862;2023-01-06T06:02:24;9.70;99.90
54431;DHT22;40342;52.998;5.862;2023-01-06T06:04:50;9.70;99.90
54431;DHT22;40342;52.998;5.862;2023-01-06T06:07:16;9.60;99.90
54431;DHT22;40342;52.998;5.862;2023-01-06T06:09:41;9.70;99.90
54431;DHT22;40342;52.998;5.862;2023-01-06T06:12:07;9.60;99.90
54431;DHT22;40342;52.998;5.862;2023-01-06T06:14:32;9.60;99.90
54431;DHT22;40342;52.998;5.862;2023-01-06T06:16:58;9.60;99.90
54431;DHT22;40342;52.998;5.862;2023-01-06T06:19:24;9.60;99.90
54431;DHT22;40342;52.998;5.862;2023-01-06T06:21:49;9.60;99.90
54431;DHT22;40342;52.998;5.862;2023-01-06T06:24:15;9.60;99.90
54431;DHT22;40342;52.998;5.862;2023-01-06T06:26:40;9.60;99.90
54431;DHT22;40342;52.998;5.862;2023-01-06T06:29:06;9.60;99.90
54431;DHT22;40342;52.998;5.862;2023-01-06T06:31:32;9.50;99.90
54431;DHT22;40342;52.998;5.862;2023-01-06T06:33:59;9.50;99.90
54431;DHT22;40342;52.998;5.862;2023-01-06T06:36:26;9.50;99.90
54431;DHT22;40342;52.998;5.862;2023-01-06T06:38:53;9.50;99.90
54431;DHT22;40342;52.998;5.862;2023-01-06T06:41:19;9.50;99.90
54431;DHT22;40342;52.998;5.862;2023-01-06T06:43:47;9.50;99.90
54431;DHT22;40342;52.998;5.862;2023-01-06T06:46:13;9.50;99.90
54431;DHT22;40342;52.998;5.862;2023-01-06T06:48:39;9.50;99.90
54431;DHT22;40342;52.998;5.862;2023-01-06T06:51:11;9.40;99.90
54431;DHT22;40342;52.998;5.862;2023-01-06T06:53:37;9.40;99.90
54431;DHT22;40342;52.998;5.862;2023-01-06T06:56:04;9.50;99.90
54431;DHT22;40342;52.998;5.862;2023-01-06T06:58:30;9.40;99.90
54431;DHT22;40342;52.998;5.862;2023-01-06T07:00:56;9.40;99.90
54431;DHT22;40342;52.998;5.862;2023-01-06T07:03:21;9.30;99.90
54431;DHT22;40342;52.998;5.862;2023-01-06T07:05:48;9.30;99.90
54431;DHT22;40342;52.998;5.862;2023-01-06T07:08:15;9.30;99.90
54431;DHT22;40342;52.998;5.862;2023-01-06T07:10:41;9.40;99.90
54431;DHT22;40342;52.998;5.862;2023-01-06T07:13:06;9.40;99.90
54431;DHT22;40342;52.998;5.862;2023-01-06T07:15:32;9.40;99.90
54431;DHT22;40342;52.998;5.862;2023-01-06T07:18:02;9.40;99.90
54431;DHT22;40342;52.998;5.862;2023-01-06T07:20:29;9.50;99.90
54431;DHT22;40342;52.998;5.862;2023-01-06T07:22:55;9.40;99.90
54431;DHT22;40342;52.998;5.862;2023-01-06T07:25:20;9.40;99.90
54431;DHT22;40342;52.998;5.862;2023-01-06T07:27:46;9.20;99.90
54431;DHT22;40342;52.998;5.862;2023-01-06T07:30:12;9.20;99.90
54431;DHT22;40342;52.998;5.862;2023-01-06T07:32:37;9.10;99.90
54431;DHT22;40342;52.998;5.862;2023-01-06T07:35:03;9.00;99.90
54431;DHT22;40342;52.998;5.862;2023-01-06T07:37:29;8.80;99.90
54431;DHT22;40342;52.998;5.862;2023-01-06T07:39:54;8.70;99.90
54431;DHT22;40342;52.998;5.862;2023-01-06T07:42:20;8.60;99.90
54431;DHT22;40342;52.998;5.862;2023-01-06T07:44:45;8.50;99.90
54431;DHT22;40342;52.998;5.862;2023-01-06T07:47:11;8.40;99.90
54431;DHT22;40342;52.998;5.862;2023-01-06T07:49:37;8.30;99.90
54431;DHT22;40342;52.998;5.862;2023-01-06T07:52:03;8.20;99.90
54431;DHT22;40342;52.998;5.862;2023-01-06T07:54:28;8.10;99.90
54431;DHT22;40342;52.998;5.862;2023-01-06T07:56:54;8.10;99.90
54431;DHT22;40342;52.998;5.862;2023-01-06T07:59:19;8.00;99.90
54431;DHT22;40342;52.998;5.862;2023-01-06T08:01:45;7.90;99.90
54431;DHT22;40342;52.998;5.862;2023-01-06T08:04:10;7.80;99.90
54431;DHT22;40342;52.998;5.862;2023-01-06T08:06:38;7.70;99.90
54431;DHT22;40342;52.998;5.862;2023-01-06T08:09:04;7.70;99.90
54431;DHT22;40342;52.998;5.862;2023-01-06T08:11:30;7.50;99.90
54431;DHT22;40342;52.998;5.862;2023-01-06T08:13:55;7.50;99.90
54431;DHT22;40342;52.998;5.862;2023-01-06T08:16:21;7.50;99.90
54431;DHT22;40342;52.998;5.862;2023-01-06T08:18:46;7.40;99.90
54431;DHT22;40342;52.998;5.862;2023-01-06T08:21:12;7.40;99.90
54431;DHT22;40342;52.998;5.862;2023-01-06T08:23:38;7.30;99.90
54431;DHT22;40342;52.998;5.862;2023-01-06T08:26:06;7.30;99.90
54431;DHT22;40342;52.998;5.862;2023-01-06T08:28:32;7.30;99.90
54431;DHT22;40342;52.998;5.862;2023-01-06T08:30:58;7.20;99.90
54431;DHT22;40342;52.998;5.862;2023-01-06T08:33:24;7.30;99.90
54431;DHT22;40342;52.998;5.862;2023-01-06T08:35:51;7.30;99.90
54431;DHT22;40342;52.998;5.862;2023-01-06T08:38:17;7.30;99.90
54431;DHT22;40342;52.998;5.862;2023-01-06T08:40:43;7.30;99.90
54431;DHT22;40342;52.998;5.862;2023-01-06T08:43:08;7.40;99.90
54431;DHT22;40342;52.998;5.862;2023-01-06T08:45:37;7.40;99.90
54431;DHT22;40342;52.998;5.862;2023-01-06T08:48:03;7.40;99.90
54431;DHT22;40342;52.998;5.862;2023-01-06T08:50:29;7.50;99.90
54431;DHT22;40342;52.998;5.862;2023-01-06T08:52:55;7.50;99.90
54431;DHT22;40342;52.998;5.862;2023-01-06T08:55:20;7.50;99.90
54431;DHT22;40342;52.998;5.862;2023-01-06T08:57:46;7.50;99.90
54431;DHT22;40342;52.998;5.862;2023-01-06T09:00:12;7.50;99.90
54431;DHT22;40342;52.998;5.862;2023-01-06T09:02:37;7.50;99.90
54431;DHT22;40342;52.998;5.862;2023-01-06T09:05:04;7.50;99.90
54431;DHT22;40342;52.998;5.862;2023-01-06T09:07:30;7.50;99.90
54431;DHT22;40342;52.998;5.862;2023-01-06T09:09:55;7.50;99.90
54431;DHT22;40342;52.998;5.862;2023-01-06T09:12:21;7.50;99.90
54431;DHT22;40342;52.998;5.862;2023-01-06T09:14:46;7.60;99.90
54431;DHT22;40342;52.998;5.862;2023-01-06T09:17:12;7.60;99.90
54431;DHT22;40342;52.998;5.862;2023-01-06T09:19:37;7.60;99.90
54431;DHT22;40342;52.998;5.862;2023-01-06T09:22:03;7.70;99.90
54431;DHT22;40342;52.998;5.862;2023-01-06T09:24:29;7.70;99.90
54431;DHT22;40342;52.998;5.862;2023-01-06T09:26:55;7.80;99.90
54431;DHT22;40342;52.998;5.862;2023-01-06T09:29:20;7.80;99.90
54431;DHT22;40342;52.998;5.862;2023-01-06T09:31:46;7.90;99.90
54431;DHT22;40342;52.998;5.862;2023-01-06T09:34:11;7.90;99.90
54431;DHT22;40342;52.998;5.862;2023-01-06T09:36:37;8.00;99.90
54431;DHT22;40342;52.998;5.862;2023-01-06T09:39:02;8.00;99.90
54431;DHT22;40342;52.998;5.862;2023-01-06T09:44:15;8.00;99.90
54431;DHT22;40342;52.998;5.862;2023-01-06T09:46:45;8.10;99.90
54431;DHT22;40342;52.998;5.862;2023-01-06T09:51:44;8.40;99.90
54431;DHT22;40342;52.998;5.862;2023-01-06T09:54:45;8.50;99.90
54431;DHT22;40342;52.998;5.862;2023-01-06T09:57:16;8.80;99.90
54431;DHT22;40342;52.998;5.862;2023-01-06T09:59:50;8.90;99.90
54431;DHT22;40342;52.998;5.862;2023-01-06T10:02:38;9.10;99.90
54431;DHT22;40342;52.998;5.862;2023-01-06T10:05:18;9.30;99.90
54431;DHT22;40342;52.998;5.862;2023-01-06T10:10:57;9.50;99.90
54431;DHT22;40342;52.998;5.862;2023-01-06T10:14:09;9.50;99.90
54431;DHT22;40342;52.998;5.862;2023-01-06T10:22:33;9.70;99.90
54431;DHT22;40342;52.998;5.862;2023-01-06T10:25:13;9.80;99.90
54431;DHT22;40342;52.998;5.862;2023-01-06T10:27:41;9.70;99.90
54431;DHT22;40342;52.998;5.862;2023-01-06T10:30:19;9.80;99.90
54431;DHT22;40342;52.998;5.862;2023-01-06T10:32:48;9.80;99.90
54431;DHT22;40342;52.998;5.862;2023-01-06T10:35:15;9.80;99.90
54431;DHT22;40342;52.998;5.862;2023-01-06T10:37:50;9.80;99.90
54431;DHT22;40342;52.998;5.862;2023-01-06T10:40:21;9.80;99.90
54431;DHT22;40342;52.998;5.862;2023-01-06T10:42:54;9.80;99.90
54431;DHT22;40342;52.998;5.862;2023-01-06T10:45:58;9.80;99.90
54431;DHT22;40342;52.998;5.862;2023-01-06T10:48:22;9.80;99.90
54431;DHT22;40342;52.998;5.862;2023-01-06T10:50:49;9.80;99.90
54431;DHT22;40342;52.998;5.862;2023-01-06T10:53:15;9.80;99.90
54431;DHT22;40342;52.998;5.862;2023-01-06T10:55:55;9.80;99.90
54431;DHT22;40342;52.998;5.862;2023-01-06T11:01:15;9.80;99.90
54431;DHT22;40342;52.998;5.862;2023-01-06T11:06:33;9.80;99.90
54431;DHT22;40342;52.998;5.862;2023-01-06T11:09:05;9.80;99.90
54431;DHT22;40342;52.998;5.862;2023-01-06T11:11:31;9.80;99.90
54431;DHT22;40342;52.998;5.862;2023-01-06T11:14:01;9.90;99.90
54431;DHT22;40342;52.998;5.862;2023-01-06T11:16:34;9.90;99.90
54431;DHT22;40342;52.998;5.862;2023-01-06T11:19:06;9.90;99.90
54431;DHT22;40342;52.998;5.862;2023-01-06T11:21:44;9.90;99.90
54431;DHT22;40342;52.998;5.862;2023-01-06T11:24:22;9.90;99.90
54431;DHT22;40342;52.998;5.862;2023-01-06T11:27:13;9.90;99.90
54431;DHT22;40342;52.998;5.862;2023-01-06T11:29:39;10.00;99.90
54431;DHT22;40342;52.998;5.862;2023-01-06T11:32:25;9.90;99.90
54431;DHT22;40342;52.998;5.862;2023-01-06T11:34:54;9.90;99.90
54431;DHT22;40342;52.998;5.862;2023-01-06T11:37:40;9.90;99.90
54431;DHT22;40342;52.998;5.862;2023-01-06T11:40:30;9.90;99.90
54431;DHT22;40342;52.998;5.862;2023-01-06T11:42:59;9.80;99.90
54431;DHT22;40342;52.998;5.862;2023-01-06T11:45:42;9.80;99.90
54431;DHT22;40342;52.998;5.862;2023-01-06T11:48:19;9.80;99.90
54431;DHT22;40342;52.998;5.862;2023-01-06T11:50:53;9.70;99.90
54431;DHT22;40342;52.998;5.862;2023-01-06T11:53:20;9.70;99.90
54431;DHT22;40342;52.998;5.862;2023-01-06T11:56:04;9.70;99.90
54431;DHT22;40342;52.998;5.862;2023-01-06T12:01:54;9.60;99.90
54431;DHT22;40342;52.998;5.862;2023-01-06T12:04:37;9.60;99.90
54431;DHT22;40342;52.998;5.862;2023-01-06T12:07:31;9.50;99.90
54431;DHT22;40342;52.998;5.862;2023-01-06T12:10:03;9.50;99.90
54431;DHT22;40342;52.998;5.862;2023-01-06T12:12:31;9.50;99.90
54431;DHT22;40342;52.998;5.862;2023-01-06T12:14:56;9.40;99.90
54431;DHT22;40342;52.998;5.862;2023-01-06T12:17:38;9.40;99.90
54431;DHT22;40342;52.998;5.862;2023-01-06T12:20:21;9.30;99.90
54431;DHT22;40342;52.998;5.862;2023-01-06T12:22:50;9.30;99.90
54431;DHT22;40342;52.998;5.862;2023-01-06T12:25:26;9.30;99.90
54431;DHT22;40342;52.998;5.862;2023-01-06T12:27:57;9.30;99.90
54431;DHT22;40342;52.998;5.862;2023-01-06T12:33:04;9.20;99.90
54431;DHT22;40342;52.998;5.862;2023-01-06T12:35:36;9.20;99.90
54431;DHT22;40342;52.998;5.862;2023-01-06T12:38:29;9.30;99.90
54431;DHT22;40342;52.998;5.862;2023-01-06T12:44:50;9.30;99.90
54431;DHT22;40342;52.998;5.862;2023-01-06T12:47:31;9.20;99.90
54431;DHT22;40342;52.998;5.862;2023-01-06T12:50:02;9.20;99.90
54431;DHT22;40342;52.998;5.862;2023-01-06T12:52:45;9.20;99.90
54431;DHT22;40342;52.998;5.862;2023-01-06T12:55:15;9.10;99.90
54431;DHT22;40342;52.998;5.862;2023-01-06T13:00:27;9.10;99.90
54431;DHT22;40342;52.998;5.862;2023-01-06T13:03:21;9.10;99.90
54431;DHT22;40342;52.998;5.862;2023-01-06T13:09:04;9.10;99.90
54431;DHT22;40342;52.998;5.862;2023-01-06T13:11:56;9.10;99.90
54431;DHT22;40342;52.998;5.862;2023-01-06T13:39:12;9.00;99.90
54431;DHT22;40342;52.998;5.862;2023-01-06T13:41:44;8.90;99.90
54431;DHT22;40342;52.998;5.862;2023-01-06T13:44:23;8.90;99.90
54431;DHT22;40342;52.998;5.862;2023-01-06T13:46:52;8.90;99.90
54431;DHT22;40342;52.998;5.862;2023-01-06T13:49:18;8.90;99.90
54431;DHT22;40342;52.998;5.862;2023-01-06T13:51:45;8.90;99.90
54431;DHT22;40342;52.998;5.862;2023-01-06T13:59:52;8.80;99.90
54431;DHT22;40342;52.998;5.862;2023-01-06T14:07:49;8.70;99.90
54431;DHT22;40342;52.998;5.862;2023-01-06T14:13:01;8.70;99.90
54431;DHT22;40342;52.998;5.862;2023-01-06T14:15:32;8.70;99.90
54431;DHT22;40342;52.998;5.862;2023-01-06T14:18:00;8.70;99.90
54431;DHT22;40342;52.998;5.862;2023-01-06T14:20:33;8.70;99.90
54431;DHT22;40342;52.998;5.862;2023-01-06T14:23:19;8.70;99.90
54431;DHT22;40342;52.998;5.862;2023-01-06T14:25:52;8.70;99.90
54431;DHT22;40342;52.998;5.862;2023-01-06T14:30:44;8.60;99.90
54431;DHT22;40342;52.998;5.862;2023-01-06T14:38:54;8.50;99.90
54431;DHT22;40342;52.998;5.862;2023-01-06T14:41:33;8.50;99.90
54431;DHT22;40342;52.998;5.862;2023-01-06T14:44:16;8.50;99.90
54431;DHT22;40342;52.998;5.862;2023-01-06T14:46:55;8.40;99.90
54431;DHT22;40342;52.998;5.862;2023-01-06T14:49:37;8.40;99.90
54431;DHT22;40342;52.998;5.862;2023-01-06T14:52:15;8.30;99.90
54431;DHT22;40342;52.998;5.862;2023-01-06T14:54:43;8.30;99.90
54431;DHT22;40342;52.998;5.862;2023-01-06T14:57:33;8.20;99.90
54431;DHT22;40342;52.998;5.862;2023-01-06T15:00:10;8.20;99.90
54431;DHT22;40342;52.998;5.862;2023-01-06T15:02:37;8.20;99.90
54431;DHT22;40342;52.998;5.862;2023-01-06T15:05:22;8.20;99.90
54431;DHT22;40342;52.998;5.862;2023-01-06T15:08:04;8.20;99.90
54431;DHT22;40342;52.998;5.862;2023-01-06T15:10:33;8.20;99.90
54431;DHT22;40342;52.998;5.862;2023-01-06T15:13:01;8.10;99.90
54431;DHT22;40342;52.998;5.862;2023-01-06T15:15:28;8.10;99.90
54431;DHT22;40342;52.998;5.862;2023-01-06T15:17:55;8.10;99.90
54431;DHT22;40342;52.998;5.862;2023-01-06T15:20:28;8.10;99.90
54431;DHT22;40342;52.998;5.862;2023-01-06T15:22:56;8.10;99.90
54431;DHT22;40342;52.998;5.862;2023-01-06T15:25:23;8.00;99.90
54431;DHT22;40342;52.998;5.862;2023-01-06T15:27:51;8.00;99.90
54431;DHT22;40342;52.998;5.862;2023-01-06T15:30:23;7.90;99.90
54431;DHT22;40342;52.998;5.862;2023-01-06T15:32:51;7.90;99.90
54431;DHT22;40342;52.998;5.862;2023-01-06T15:35:28;7.80;99.90
54431;DHT22;40342;52.998;5.862;2023-01-06T15:40:39;7.70;99.90
54431;DHT22;40342;52.998;5.862;2023-01-06T15:43:08;7.70;99.90
54431;DHT22;40342;52.998;5.862;2023-01-06T15:45:35;7.60;99.90
54431;DHT22;40342;52.998;5.862;2023-01-06T15:48:10;7.60;99.90
54431;DHT22;40342;52.998;5.862;2023-01-06T15:50:39;7.60;99.90
54431;DHT22;40342;52.998;5.862;2023-01-06T15:53:05;7.50;99.90
54431;DHT22;40342;52.998;5.862;2023-01-06T15:55:35;7.50;99.90
54431;DHT22;40342;52.998;5.862;2023-01-06T15:58:08;7.50;99.90
54431;DHT22;40342;52.998;5.862;2023-01-06T16:00:43;7.50;99.90
54431;DHT22;40342;52.998;5.862;2023-01-06T16:03:17;7.50;99.90
54431;DHT22;40342;52.998;5.862;2023-01-06T16:05:45;7.40;99.90
54431;DHT22;40342;52.998;5.862;2023-01-06T16:08:25;7.40;99.90
54431;DHT22;40342;52.998;5.862;2023-01-06T16:14:04;7.50;99.90
54431;DHT22;40342;52.998;5.862;2023-01-06T16:16:36;7.40;99.90
54431;DHT22;40342;52.998;5.862;2023-01-06T16:19:17;7.40;99.90
54431;DHT22;40342;52.998;5.862;2023-01-06T16:21:43;7.40;99.90
54431;DHT22;40342;52.998;5.862;2023-01-06T16:24:21;7.40;99.90
54431;DHT22;40342;52.998;5.862;2023-01-06T16:26:54;7.40;99.90
54431;DHT22;40342;52.998;5.862;2023-01-06T16:32:16;7.40;99.90
54431;DHT22;40342;52.998;5.862;2023-01-06T16:34:48;7.40;99.90
54431;DHT22;40342;52.998;5.862;2023-01-06T16:37:13;7.40;99.90
54431;DHT22;40342;52.998;5.862;2023-01-06T16:39:39;7.40;99.90
54431;DHT22;40342;52.998;5.862;2023-01-06T16:42:31;7.40;99.90
54431;DHT22;40342;52.998;5.862;2023-01-06T16:45:21;7.40;99.90
54431;DHT22;40342;52.998;5.862;2023-01-06T16:47:47;7.40;99.90
54431;DHT22;40342;52.998;5.862;2023-01-06T16:50:15;7.40;99.90
54431;DHT22;40342;52.998;5.862;2023-01-06T16:52:42;7.40;99.90
54431;DHT22;40342;52.998;5.862;2023-01-06T16:55:13;7.40;99.90
54431;DHT22;40342;52.998;5.862;2023-01-06T16:57:39;7.40;99.90
54431;DHT22;40342;52.998;5.862;2023-01-06T17:00:10;7.40;99.90
54431;DHT22;40342;52.998;5.862;2023-01-06T17:02:37;7.40;99.90
54431;DHT22;40342;52.998;5.862;2023-01-06T17:05:22;7.40;99.90
54431;DHT22;40342;52.998;5.862;2023-01-06T17:07:48;7.40;99.90
54431;DHT22;40342;52.998;5.862;2023-01-06T17:10:18;7.40;99.90
54431;DHT22;40342;52.998;5.862;2023-01-06T17:12:58;7.40;99.90
54431;DHT22;40342;52.998;5.862;2023-01-06T17:15:43;7.40;99.90
54431;DHT22;40342;52.998;5.862;2023-01-06T17:18:24;7.50;99.90
54431;DHT22;40342;52.998;5.862;2023-01-06T17:20:52;7.50;99.90
54431;DHT22;40342;52.998;5.862;2023-01-06T17:23:18;7.50;99.90
54431;DHT22;40342;52.998;5.862;2023-01-06T17:25:45;7.60;99.90
54431;DHT22;40342;52.998;5.862;2023-01-06T17:28:19;7.70;99.90
54431;DHT22;40342;52.998;5.862;2023-01-06T17:30:47;7.70;99.90
54431;DHT22;40342;52.998;5.862;2023-01-06T17:33:15;7.60;99.90
54431;DHT22;40342;52.998;5.862;2023-01-06T17:35:42;7.70;99.90
54431;DHT22;40342;52.998;5.862;2023-01-06T17:38:18;7.60;99.90
54431;DHT22;40342;52.998;5.862;2023-01-06T17:40:47;7.60;99.90
54431;DHT22;40342;52.998;5.862;2023-01-06T17:43:28;7.60;99.90
54431;DHT22;40342;52.998;5.862;2023-01-06T17:45:56;7.60;99.90
54431;DHT22;40342;52.998;5.862;2023-01-06T17:48:22;7.50;99.90
54431;DHT22;40342;52.998;5.862;2023-01-06T17:50:50;7.50;99.90
54431;DHT22;40342;52.998;5.862;2023-01-06T17:53:35;7.50;99.90
54431;DHT22;40342;52.998;5.862;2023-01-06T17:56:21;7.50;99.90
54431;DHT22;40342;52.998;5.862;2023-01-06T17:58:47;7.40;99.90
54431;DHT22;40342;52.998;5.862;2023-01-06T18:01:18;7.40;99.90
54431;DHT22;40342;52.998;5.862;2023-01-06T18:03:46;7.30;99.90
54431;DHT22;40342;52.998;5.862;2023-01-06T18:06:26;7.30;99.90
54431;DHT22;40342;52.998;5.862;2023-01-06T18:09:15;7.20;99.90
54431;DHT22;40342;52.998;5.862;2023-01-06T18:11:49;7.20;99.90
54431;DHT22;40342;52.998;5.862;2023-01-06T18:14:35;7.20;99.90